aviador You're here:

KBML Decoded Metar

BERLIN in NH, USA
Report Time2018-05-26 07:52:00
UTC Time2018-05-26 08:04:10
Flight Rules vfr VFR
WindCalm
Visibility9999 m
Phenomena:N/A
Clouds:Scattered 046 Hf
Broken 070 Hf
Overcast 100 Hf
Expected CloudBase > 2,000 ft AGL from Temp-Dew spread
Ceiling7,000 ft
Temp18°C (ISA +5)
Dew Point13°C (73% RH)
QNH1005 hPa
Density Alt2,224 ft
Elevation1,132 ft
Report Wrong Elevation
Raw Report
KBML 260752Z AUTO 00000KT 10SM SCT046 BKN070 OVC100 18/13 A2969
RMK AO2 SLP048 T01830133=

Extra information for KBML:More info

Metar Taf Metar & Taf Last 4 Metars F.Rules Stats Wind Profile Meteogram Temp Stats Airport Information Weather charts Add Link Nearby VenuesMetar ALERT Operation Metar Decoded Social comments

AIRNAV info for KBML